Time;durP1;ratioP1;P1;durP2;ratioP2;P2;SDS_P1;SDS_P2;PMS_P1;PMS_P2;Temp;Humidity;BMP_temperature;BMP_pressure;BME280_temperature;BME280_humidity;BME280_pressure;Samples;Min_cycle;Max_cycle;Signal;HPM_P1;HPM_P2
2022/12/27 00:00:12;;;;;;;6.45;2.95;;;;;;;6.24;56.63;101557.13;672675;29;1281;-83
2022/12/27 00:00:36;;;;;;;6.68;2.88;;;;;;;6.35;56.61;101565.53;672747;29;904;-83
2022/12/27 00:00:56;;;;;;;6.00;2.50;;;;;;;6.25;56.29;101549.44;675368;29;1281;-83
2022/12/27 00:01:19;;;;;;;5.70;2.50;;;;;;;6.32;56.29;101568.81;675302;29;1361;-82
2022/12/27 00:01:39;;;;;;;5.05;2.50;;;;;;;6.23;56.34;101576.06;675333;29;997;-83
2022/12/27 00:02:01;;;;;;;5.75;2.60;;;;;;;6.27;56.26;101578.06;675475;29;781;-83
2022/12/27 00:02:22;;;;;;;6.93;2.58;;;;;;;6.24;56.85;101568.38;672819;29;1005;-84
2022/12/27 00:02:42;;;;;;;6.18;2.53;;;;;;;6.24;56.70;101560.63;675333;29;1330;-83
2022/12/27 00:03:03;;;;;;;5.23;2.47;;;;;;;6.15;56.57;101563.56;672735;29;1111;-84
2022/12/27 00:03:24;;;;;;;4.50;2.80;;;;;;;6.18;56.57;101562.84;675458;29;1085;-83
2022/12/27 00:03:46;;;;;;;4.45;3.00;;;;;;;6.16;56.80;101569.63;678015;29;1089;-84
2022/12/27 00:04:06;;;;;;;6.32;3.00;;;;;;;6.18;56.76;101567.16;675381;29;1129;-83
2022/12/27 00:04:27;;;;;;;7.53;3.00;;;;;;;6.13;56.92;101564.25;672746;29;1367;-83
2022/12/27 00:04:49;;;;;;;6.68;2.70;;;;;;;6.15;56.92;101570.44;672807;29;1212;-83
2022/12/27 00:05:19;;;;;;;4.53;2.53;;;;;;;6.15;56.92;101588.59;672912;29;1095;-83
2022/12/27 00:05:48;;;;;;;5.95;2.88;;;;;;;6.17;57.16;101574.00;672655;29;1217;-83
2022/12/27 00:06:16;;;;;;;6.47;3.10;;;;;;;6.14;56.98;101577.31;672845;29;974;-83
2022/12/27 00:06:37;;;;;;;5.88;2.80;;;;;;;6.10;57.04;101580.53;671698;29;1035;-83
2022/12/27 00:06:57;;;;;;;6.47;2.70;;;;;;;6.02;57.29;101564.53;669946;29;1283;-83
2022/12/27 00:07:18;;;;;;;7.70;2.97;;;;;;;6.09;57.10;101583.03;675299;29;1127;-83
2022/12/27 00:07:39;;;;;;;7.03;2.95;;;;;;;6.11;56.96;101589.19;677897;29;1368;-84
2022/12/27 00:08:00;;;;;;;5.43;3.00;;;;;;;5.99;57.15;101571.22;675405;29;1278;-84
2022/12/27 00:08:20;;;;;;;5.22;2.80;;;;;;;6.01;56.97;101560.16;670101;29;1142;-83
2022/12/27 00:08:43;;;;;;;5.88;2.95;;;;;;;5.98;56.81;101565.16;670181;29;1001;-83
2022/12/27 00:09:04;;;;;;;7.10;3.10;;;;;;;6.11;56.96;101577.16;672698;29;1521;-84
2022/12/27 00:09:25;;;;;;;6.10;3.10;;;;;;;6.06;56.99;101572.50;672842;29;1070;-83
2022/12/27 00:09:46;;;;;;;5.60;2.78;;;;;;;6.02;57.17;101561.94;675479;29;1005;-83
2022/12/27 00:10:08;;;;;;;3.60;2.33;;;;;;;6.09;57.27;101588.22;672735;29;1045;-85
2022/12/27 00:10:28;;;;;;;4.82;2.50;;;;;;;5.98;57.15;101567.75;675299;29;1291;-86
2022/12/27 00:10:50;;;;;;;4.75;2.58;;;;;;;5.97;57.12;101565.06;672779;29;1098;-85
2022/12/27 00:11:17;;;;;;;6.80;2.72;;;;;;;6.00;57.36;101568.72;670150;29;1199;-86
2022/12/27 00:11:37;;;;;;;7.32;2.80;;;;;;;6.12;57.29;101583.22;670207;29;1025;-85
2022/12/27 00:11:58;;;;;;;7.37;2.83;;;;;;;6.06;57.16;101575.09;672879;29;798;-85
2022/12/27 00:12:19;;;;;;;5.75;2.70;;;;;;;6.02;57.18;101568.84;672773;29;1170;-86
2022/12/27 00:12:39;;;;;;;5.07;2.53;;;;;;;6.05;57.11;101581.06;672824;29;1095;-85
2022/12/27 00:13:00;;;;;;;4.70;2.42;;;;;;;6.02;57.34;101567.13;672896;29;940;-85
2022/12/27 00:13:22;;;;;;;5.30;2.60;;;;;;;6.03;57.35;101570.63;672697;29;1172;-86
2022/12/27 00:13:43;;;;;;;3.88;2.40;;;;;;;6.00;57.42;101573.91;672643;29;1271;-85
2022/12/27 00:14:05;;;;;;;4.13;2.40;;;;;;;5.97;57.27;101567.66;675402;29;1151;-85
2022/12/27 00:14:26;;;;;;;5.60;2.50;;;;;;;5.96;57.24;101564.16;672692;29;1231;-85
2022/12/27 00:14:47;;;;;;;6.10;2.60;;;;;;;5.94;57.12;101572.66;675134;29;1907;-86
2022/12/27 00:15:09;;;;;;;5.53;2.83;;;;;;;5.97;57.30;101570.25;675378;29;929;-86
2022/12/27 00:15:29;;;;;;;6.78;2.97;;;;;;;5.92;57.38;101580.34;672724;29;1305;-86
2022/12/27 00:15:50;;;;;;;7.10;2.90;;;;;;;5.95;57.38;101559.78;672651;29;1185;-83
2022/12/27 00:16:15;;;;;;;6.40;2.53;;;;;;;6.00;57.40;101584.28;672771;29;1016;-83
2022/12/27 00:16:36;;;;;;;5.93;2.60;;;;;;;5.95;57.31;101569.25;672699;29;1282;-82
2022/12/27 00:16:57;;;;;;;5.45;2.50;;;;;;;5.91;57.29;101568.19;672553;29;1451;-83
2022/12/27 00:17:18;;;;;;;7.30;2.40;;;;;;;5.90;57.08;101566.41;675316;29;1074;-83
2022/12/27 00:17:38;;;;;;;10.57;2.60;;;;;;;5.91;57.72;101568.19;672810;29;1159;-83
2022/12/27 00:17:59;;;;;;;10.90;2.92;;;;;;;5.91;57.50;101568.19;675438;29;828;-83
2022/12/27 00:18:20;;;;;;;8.73;3.00;;;;;;;5.89;57.57;101567.16;675212;29;1459;-83
2022/12/27 00:18:41;;;;;;;6.33;3.00;;;;;;;5.86;57.49;101570.50;672729;29;1018;-83
2022/12/27 00:19:03;;;;;;;5.80;2.70;;;;;;;5.93;57.60;101576.94;672746;29;1317;-82
2022/12/27 00:19:23;;;;;;;4.55;2.60;;;;;;;5.93;57.72;101565.66;667622;29;894;-83
2022/12/27 00:19:44;;;;;;;3.90;2.30;;;;;;;5.84;57.55;101572.09;675229;29;1303;-83
2022/12/27 00:20:05;;;;;;;7.18;2.50;;;;;;;5.86;57.54;101569.59;675421;29;1126;-83
2022/12/27 00:20:26;;;;;;;7.43;2.60;;;;;;;5.91;58.03;101582.81;675303;29;1441;-83
2022/12/27 00:20:46;;;;;;;6.50;2.60;;;;;;;5.83;58.04;101566.84;675356;29;1083;-83
2022/12/27 00:21:10;;;;;;;5.15;2.70;;;;;;;5.89;57.80;101572.34;675288;29;1268;-83
2022/12/27 00:21:31;;;;;;;6.60;2.63;;;;;;;5.90;57.96;101571.59;672671;29;1261;-82
2022/12/27 00:21:52;;;;;;;6.68;2.53;;;;;;;5.88;57.93;101573.16;675394;29;867;-83
2022/12/27 00:22:13;;;;;;;7.10;2.70;;;;;;;5.90;58.07;101581.94;675370;29;1333;-83
2022/12/27 00:22:33;;;;;;;7.70;3.00;;;;;;;5.84;57.60;101566.03;675336;29;1173;-83
2022/12/27 00:22:54;;;;;;;6.93;2.90;;;;;;;5.84;58.11;101573.78;677850;29;1286;-82
2022/12/27 00:23:14;;;;;;;9.13;2.85;;;;;;;5.85;57.68;101583.34;675213;29;1222;-85
2022/12/27 00:23:37;;;;;;;6.63;2.70;;;;;;;5.88;57.80;101573.16;675378;29;1032;-85
2022/12/27 00:23:59;;;;;;;6.90;2.70;;;;;;;5.78;57.65;101557.88;667677;29;1289;-86
2022/12/27 00:24:20;;;;;;;4.50;2.63;;;;;;;5.84;58.01;101582.44;670053;29;1016;-86
2022/12/27 00:24:41;;;;;;;4.00;2.72;;;;;;;5.81;57.95;101566.72;670229;29;1194;-85
2022/12/27 00:25:01;;;;;;;3.92;2.58;;;;;;;5.74;57.95;101557.72;675269;29;1197;-85
2022/12/27 00:25:22;;;;;;;4.73;2.47;;;;;;;5.79;57.83;101563.16;675305;29;1351;-85
2022/12/27 00:25:42;;;;;;;5.28;2.40;;;;;;;5.81;57.75;101568.41;672669;29;1183;-85
2022/12/27 00:26:06;;;;;;;4.10;2.40;;;;;;;5.78;57.85;101568.25;670140;29;1246;-85
2022/12/27 00:26:30;;;;;;;5.38;2.50;;;;;;;5.86;57.78;101575.69;669974;29;1248;-85
2022/12/27 00:26:50;;;;;;;6.10;2.75;;;;;;;5.77;57.74;101563.88;669939;29;1215;-85
2022/12/27 00:27:11;;;;;;;6.70;2.95;;;;;;;5.79;58.09;101563.16;672635;29;1310;-85
2022/12/27 00:27:31;;;;;;;5.38;2.85;;;;;;;5.82;58.03;101558.16;667661;29;1285;-85
2022/12/27 00:27:52;;;;;;;4.90;2.60;;;;;;;5.82;57.92;101572.81;670150;29;1053;-85
2022/12/27 00:28:13;;;;;;;7.88;2.70;;;;;;;5.77;57.72;101563.88;672687;29;1056;-85
2022/12/27 00:28:34;;;;;;;6.97;2.60;;;;;;;5.78;57.89;101561.38;672696;29;1182;-85
2022/12/27 00:28:57;;;;;;;7.00;2.70;;;;;;;5.86;57.99;101575.69;672680;29;1250;-85
2022/12/27 00:29:18;;;;;;;3.58;2.40;;;;;;;5.71;57.88;101554.91;675243;29;1274;-85
2022/12/27 00:29:40;;;;;;;4.70;2.40;;;;;;;5.74;57.92;101560.28;680490;29;936;-85
2022/12/27 00:30:02;;;;;;;5.18;2.67;;;;;;;5.75;58.35;101562.09;675357;29;843;-85
2022/12/27 00:30:22;;;;;;;6.28;2.80;;;;;;;5.71;58.30;101566.97;672744;29;914;-85
2022/12/27 00:30:43;;;;;;;5.10;2.67;;;;;;;5.73;58.17;101561.09;672577;29;1263;-85
2022/12/27 00:31:04;;;;;;;5.78;2.60;;;;;;;5.69;57.99;101558.19;672622;29;1304;-85
2022/12/27 00:31:34;;;;;;;6.13;2.90;;;;;;;5.73;58.31;101574.06;672750;29;1208;-85
2022/12/27 00:31:55;;;;;;;5.97;2.90;;;;;;;5.67;58.32;101552.94;672647;29;1688;-85
2022/12/27 00:32:16;;;;;;;5.93;2.67;;;;;;;5.78;58.42;101576.00;672622;29;1209;-82
2022/12/27 00:32:36;;;;;;;7.07;2.77;;;;;;;5.65;58.33;101558.84;672707;29;1011;-83
2022/12/27 00:32:57;;;;;;;6.30;2.50;;;;;;;5.72;58.37;101576.53;672781;29;799;-83
2022/12/27 00:33:17;;;;;;;7.20;2.80;;;;;;;5.68;58.08;101570.28;672659;29;1300;-85
2022/12/27 00:33:40;;;;;;;5.27;2.63;;;;;;;5.67;58.13;101571.09;672583;29;1313;-84
2022/12/27 00:34:02;;;;;;;7.82;2.90;;;;;;;5.65;58.27;101575.25;675275;29;1370;-83
2022/12/27 00:34:23;;;;;;;8.27;2.53;;;;;;;5.63;58.31;101574.28;675237;29;1137;-83
2022/12/27 00:34:43;;;;;;;9.07;2.50;;;;;;;5.67;58.57;101578.84;664915;29;1907;-83
2022/12/27 00:35:05;;;;;;;8.23;2.60;;;;;;;5.63;58.77;101582.03;670106;29;1440;-84
2022/12/27 00:35:25;;;;;;;7.05;2.53;;;;;;;5.72;58.12;101592.06;670063;29;1130;-83
2022/12/27 00:35:46;;;;;;;6.75;2.28;;;;;;;5.64;58.11;101568.28;670021;29;1015;-84
2022/12/27 00:36:10;;;;;;;5.70;2.15;;;;;;;5.69;58.29;101572.06;675375;29;1017;-83
2022/12/27 00:36:31;;;;;;;7.15;2.60;;;;;;;5.74;58.20;101575.84;675347;29;761;-84
2022/12/27 00:36:54;;;;;;;7.73;2.80;;;;;;;5.80;58.14;101584.75;667531;29;926;-83
2022/12/27 00:37:15;;;;;;;6.85;2.72;;;;;;;5.74;58.53;101578.44;672547;29;1365;-84
2022/12/27 00:37:35;;;;;;;4.63;2.45;;;;;;;5.73;58.31;101584.41;670106;29;1082;-83
2022/12/27 00:37:56;;;;;;;4.10;2.40;;;;;;;5.66;58.33;101570.97;675279;29;1187;-84
2022/12/27 00:38:17;;;;;;;4.50;2.60;;;;;;;5.61;58.64;101562.94;677734;29;1196;-84
2022/12/27 00:38:37;;;;;;;5.35;2.60;;;;;;;5.71;58.23;101574.75;677870;29;980;-84
2022/12/27 00:38:59;;;;;;;6.97;2.80;;;;;;;5.79;58.01;101582.97;672679;29;1355;-83
2022/12/27 00:39:19;;;;;;;8.02;2.70;;;;;;;5.79;58.21;101594.25;672681;29;1198;-84
2022/12/27 00:39:40;;;;;;;8.13;2.55;;;;;;;5.83;57.70;101592.72;675202;29;1184;-83
2022/12/27 00:40:01;;;;;;;5.28;2.50;;;;;;;5.78;58.32;101591.56;675248;29;1020;-84
2022/12/27 00:40:21;;;;;;;4.17;2.47;;;;;;;5.80;58.26;101584.75;675239;29;1040;-83
2022/12/27 00:40:42;;;;;;;4.20;2.80;;;;;;;5.76;58.42;101583.69;670121;29;1487;-83
2022/12/27 00:41:03;;;;;;;3.55;2.60;;;;;;;5.82;58.20;101594.41;677767;29;1368;-84
2022/12/27 00:41:24;;;;;;;4.30;2.70;;;;;;;5.72;58.51;101577.41;672637;29;1282;-83
2022/12/27 00:41:44;;;;;;;4.65;2.40;;;;;;;5.73;58.33;101579.22;672683;29;1226;-84
2022/12/27 00:42:05;;;;;;;5.47;2.40;;;;;;;5.75;58.44;101582.81;677926;29;1030;-83
2022/12/27 00:42:26;;;;;;;5.87;2.67;;;;;;;5.76;58.10;101573.31;675224;29;1032;-84
2022/12/27 00:42:58;;;;;;;5.72;2.83;;;;;;;5.82;58.28;101588.38;675232;29;1204;-83
2022/12/27 00:43:19;;;;;;;5.43;2.80;;;;;;;5.84;58.18;101586.75;672664;29;1023;-83
2022/12/27 00:43:40;;;;;;;5.47;2.90;;;;;;;5.82;58.18;101583.19;672714;29;920;-85
2022/12/27 00:44:01;;;;;;;7.88;2.90;;;;;;;5.69;58.50;101581.50;672747;29;880;-83
2022/12/27 00:44:21;;;;;;;8.63;2.90;;;;;;;5.74;58.36;101581.00;675241;29;1227;-83
2022/12/27 00:44:42;;;;;;;8.40;2.90;;;;;;;5.71;58.15;101580.81;675379;29;1135;-83
2022/12/27 00:45:04;;;;;;;4.97;2.83;;;;;;;5.73;58.39;101587.00;675247;29;1238;-85
2022/12/27 00:45:25;;;;;;;4.95;2.90;;;;;;;5.73;58.47;101588.69;670155;29;1340;-85
2022/12/27 00:45:45;;;;;;;5.88;3.20;;;;;;;5.79;58.33;101578.69;672696;29;874;-84
2022/12/27 00:46:07;;;;;;;5.83;3.13;;;;;;;5.87;58.00;101581.75;670130;29;1224;-84
2022/12/27 00:46:27;;;;;;;5.05;2.85;;;;;;;5.88;58.17;101581.84;670092;29;1258;-83
2022/12/27 00:46:48;;;;;;;4.18;2.53;;;;;;;5.92;57.87;101590.69;672494;29;1221;-84
2022/12/27 00:47:09;;;;;;;4.50;2.60;;;;;;;5.90;57.92;101576.75;672682;29;1195;-84
2022/12/27 00:47:30;;;;;;;5.93;2.95;;;;;;;5.83;58.02;101579.78;670126;29;1025;-85
2022/12/27 00:47:50;;;;;;;5.50;3.00;;;;;;;5.91;57.79;101588.91;669997;29;1282;-86
2022/12/27 00:48:11;;;;;;;6.60;3.00;;;;;;;5.97;57.72;101589.28;675224;29;1039;-86
2022/12/27 00:48:32;;;;;;;5.07;2.80;;;;;;;5.85;57.93;101578.16;670113;29;1012;-83
2022/12/27 00:48:54;;;;;;;5.03;2.78;;;;;;;5.98;57.85;101600.53;672265;29;1275;-85
2022/12/27 00:49:15;;;;;;;3.63;2.65;;;;;;;5.98;57.50;101580.72;672663;29;1003;-84
2022/12/27 00:49:35;;;;;;;4.72;2.72;;;;;;;5.92;57.68;101585.50;670157;29;1182;-85
2022/12/27 00:49:56;;;;;;;4.33;2.90;;;;;;;5.89;57.88;101574.94;672601;29;1261;-85
2022/12/27 00:50:17;;;;;;;4.15;3.00;;;;;;;5.89;57.77;101582.72;677829;29;988;-84
2022/12/27 00:50:41;;;;;;;3.70;2.90;;;;;;;5.99;57.85;101592.84;675132;29;1162;-85
2022/12/27 00:51:06;;;;;;;4.57;2.70;;;;;;;5.88;57.82;101568.88;677759;29;1210;-85
2022/12/27 00:51:26;;;;;;;4.50;2.50;;;;;;;5.91;57.91;101573.38;670083;29;1370;-85
2022/12/27 00:51:47;;;;;;;5.63;2.50;;;;;;;5.97;57.51;101581.50;667554;29;1209;-85
2022/12/27 00:52:07;;;;;;;5.63;2.47;;;;;;;5.90;58.03;101574.19;667553;29;1272;-85
2022/12/27 00:52:28;;;;;;;6.60;2.90;;;;;;;5.97;57.87;101597.06;672660;29;1278;-85
2022/12/27 00:52:49;;;;;;;6.22;3.03;;;;;;;5.93;57.97;101566.56;672610;29;1088;-85
2022/12/27 00:53:12;;;;;;;6.80;3.08;;;;;;;6.02;57.90;101598.22;675167;29;1340;-85
2022/12/27 00:53:34;;;;;;;6.22;2.92;;;;;;;6.03;57.62;101589.63;674796;29;1234;-85
2022/12/27 00:53:54;;;;;;;5.60;2.85;;;;;;;5.90;57.63;101569.00;675336;29;814;-85
2022/12/27 00:54:15;;;;;;;5.40;2.53;;;;;;;5.93;57.98;101586.38;675016;29;1156;-86
2022/12/27 00:54:36;;;;;;;4.70;2.40;;;;;;;5.91;57.56;101573.38;675253;29;1198;-86
2022/12/27 00:54:56;;;;;;;4.20;2.50;;;;;;;5.83;58.01;101572.88;675198;29;1895;-84
2022/12/27 00:55:17;;;;;;;4.27;2.60;;;;;;;5.81;58.08;101586.53;670083;29;1173;-85
2022/12/27 00:55:40;;;;;;;5.83;2.77;;;;;;;5.86;58.00;101585.13;672652;29;1094;-85
2022/12/27 00:56:26;;;;;;;10.68;2.80;;;;;;;5.88;58.20;101594.78;672697;29;1329;-85
2022/12/27 00:56:47;;;;;;;8.35;2.97;;;;;;;5.78;58.24;101578.59;672390;29;1129;-85
2022/12/27 00:57:07;;;;;;;6.28;2.90;;;;;;;5.70;58.06;101571.25;675172;29;1485;-84
2022/12/27 00:57:28;;;;;;;5.53;2.73;;;;;;;5.67;58.50;101577.94;674095;29;1194;-85
2022/12/27 00:57:49;;;;;;;6.32;2.80;;;;;;;5.71;58.53;101580.81;673644;29;1210;-85
2022/12/27 00:58:10;;;;;;;5.67;3.10;;;;;;;5.69;58.58;101585.00;672220;29;1057;-85
2022/12/27 00:58:30;;;;;;;5.80;3.22;;;;;;;5.64;58.30;101589.00;672815;29;1062;-85
2022/12/27 00:58:55;;;;;;;5.50;3.30;;;;;;;5.60;58.66;101579.28;677922;29;1346;-85
2022/12/27 00:59:16;;;;;;;7.03;3.20;;;;;;;5.61;58.75;101588.81;677759;29;1373;-84
2022/12/27 00:59:36;;;;;;;9.80;3.10;;;;;;;5.51;58.97;101570.94;677883;29;965;-85
2022/12/27 00:59:57;;;;;;;11.00;3.20;;;;;;;5.59;58.80;101590.44;675299;29;1371;-85
2022/12/27 01:00:17;;;;;;;8.97;3.20;;;;;;;5.51;58.78;101563.19;670025;29;1171;-85
2022/12/27 01:00:39;;;;;;;7.15;3.17;;;;;;;5.55;59.03;101585.84;672696;29;1020;-85
2022/12/27 01:01:16;;;;;;;7.03;3.10;;;;;;;5.60;59.03;101587.91;675241;29;1270;-84
2022/12/27 01:01:38;;;;;;;7.40;2.95;;;;;;;5.50;59.21;101571.72;675256;29;1141;-85
2022/12/27 01:01:58;;;;;;;6.18;3.00;;;;;;;5.60;59.06;101587.03;680415;29;1400;-85
2022/12/27 01:02:19;;;;;;;6.45;3.13;;;;;;;5.54;58.70;101574.63;677854;29;1079;-85
2022/12/27 01:02:39;;;;;;;4.88;2.80;;;;;;;5.61;59.28;101586.25;670078;29;1163;-85
2022/12/27 01:03:00;;;;;;;5.60;2.70;;;;;;;5.53;58.91;101579.69;675298;29;1045;-85
2022/12/27 01:03:21;;;;;;;5.32;2.70;;;;;;;5.60;58.70;101587.03;675233;29;1086;-85
2022/12/27 01:03:42;;;;;;;5.22;2.90;;;;;;;5.54;59.41;101584.97;672772;29;899;-85
2022/12/27 01:04:03;;;;;;;4.47;3.03;;;;;;;5.55;59.32;101588.44;677737;29;1374;-85
2022/12/27 01:04:24;;;;;;;5.70;3.17;;;;;;;5.46;59.54;101574.13;675095;29;1353;-84
2022/12/27 01:04:44;;;;;;;5.80;2.90;;;;;;;5.60;59.38;101582.75;677758;29;1031;-85
2022/12/27 01:05:06;;;;;;;6.25;2.97;;;;;;;5.61;59.08;101589.69;675208;29;1026;-84
2022/12/27 01:05:26;;;;;;;5.05;2.70;;;;;;;5.57;59.02;101572.19;672728;29;1194;-85
2022/12/27 01:05:47;;;;;;;5.90;2.90;;;;;;;5.63;59.04;101587.22;675268;29;969;-85
2022/12/27 01:06:13;;;;;;;5.83;3.00;;;;;;;5.69;59.21;101597.06;672580;29;1127;-85
2022/12/27 01:06:34;;;;;;;6.53;2.85;;;;;;;5.66;58.73;101584.84;675273;29;1125;-85
2022/12/27 01:06:55;;;;;;;6.25;2.65;;;;;;;5.73;59.12;101594.78;669972;29;851;-84
2022/12/27 01:07:15;;;;;;;6.30;2.70;;;;;;;5.74;58.65;101586.19;675225;29;1240;-85
2022/12/27 01:07:36;;;;;;;6.63;2.77;;;;;;;5.69;58.76;101577.25;672767;29;1168;-85
2022/12/27 01:07:56;;;;;;;6.97;3.00;;;;;;;5.68;59.12;101574.53;675284;29;1275;-85
2022/12/27 01:08:17;;;;;;;6.80;3.10;;;;;;;5.79;58.31;101588.16;677964;29;993;-85
2022/12/27 01:08:38;;;;;;;5.53;3.20;;;;;;;5.77;58.73;101590.66;680617;29;1170;-85
2022/12/27 01:09:02;;;;;;;6.30;3.20;;;;;;;5.72;58.99;101582.59;672694;29;1216;-84
2022/12/27 01:09:23;;;;;;;6.60;3.30;;;;;;;5.75;58.89;101587.06;670398;29;1133;-85
2022/12/27 01:09:43;;;;;;;6.43;3.20;;;;;;;5.73;58.87;101581.81;670169;29;1001;-84
2022/12/27 01:10:04;;;;;;;5.88;3.30;;;;;;;5.77;58.91;101607.91;672716;29;1221;-84
2022/12/27 01:10:25;;;;;;;6.72;3.50;;;;;;;5.79;58.61;101585.56;672822;29;996;-84
2022/12/27 01:10:45;;;;;;;7.05;3.70;;;;;;;5.77;58.77;101582.88;677934;29;1196;-85
2022/12/27 01:11:08;;;;;;;6.57;3.80;;;;;;;5.91;58.56;101595.78;675392;29;1206;-85
2022/12/27 01:11:30;;;;;;;6.35;3.60;;;;;;;5.87;58.47;101582.66;667653;29;1088;-85
2022/12/27 01:11:51;;;;;;;8.25;3.50;;;;;;;5.91;58.58;101594.09;670033;29;1138;-85
2022/12/27 01:12:11;;;;;;;9.27;3.80;;;;;;;5.82;58.46;101583.19;675191;29;1092;-85
2022/12/27 01:12:34;;;;;;;10.07;4.00;;;;;;;5.87;58.38;101593.00;672728;29;1172;-85
2022/12/27 01:12:55;;;;;;;7.25;3.63;;;;;;;5.91;58.38;101604.47;675271;29;894;-85
2022/12/27 01:13:15;;;;;;;6.53;3.22;;;;;;;5.82;58.72;101584.06;675263;29;1119;-85
2022/12/27 01:13:37;;;;;;;4.63;2.80;;;;;;;5.79;58.85;101582.97;675353;29;1116;-85
2022/12/27 01:14:00;;;;;;;7.57;3.42;;;;;;;5.80;58.75;101585.66;675229;29;1228;-85
2022/12/27 01:14:20;;;;;;;9.18;3.70;;;;;;;5.80;58.34;101584.75;675358;29;1198;-85
2022/12/27 01:14:41;;;;;;;8.40;3.57;;;;;;;5.81;58.45;101589.13;672617;29;1982;-85
2022/12/27 01:15:05;;;;;;;7.25;3.67;;;;;;;5.84;58.61;101605.75;670226;29;1048;-85
2022/12/27 01:15:26;;;;;;;7.57;3.53;;;;;;;5.80;58.94;101588.25;672638;29;1117;-85
2022/12/27 01:15:47;;;;;;;7.35;3.22;;;;;;;5.67;58.81;101588.31;675280;29;1095;-85
2022/12/27 01:16:19;;;;;;;6.40;3.05;;;;;;;5.62;58.73;101603.56;677790;29;1186;-85
2022/12/27 01:16:39;;;;;;;4.68;2.92;;;;;;;5.54;59.30;101584.97;675188;29;1130;-85
2022/12/27 01:17:00;;;;;;;5.80;3.42;;;;;;;5.63;59.25;101586.34;675209;29;1214;-85
2022/12/27 01:17:21;;;;;;;5.10;3.30;;;;;;;5.61;59.17;101581.06;672610;29;1611;-85
2022/12/27 01:17:41;;;;;;;7.53;3.60;;;;;;;5.64;59.10;101585.53;675175;29;1183;-85
2022/12/27 01:18:02;;;;;;;7.97;3.30;;;;;;;5.68;59.04;101593.59;672556;29;1194;-86
2022/12/27 01:18:22;;;;;;;9.10;3.63;;;;;;;5.65;58.99;101590.78;670125;29;1003;-84
2022/12/27 01:18:44;;;;;;;6.60;3.40;;;;;;;5.72;59.36;101586.91;672645;29;1102;-85
2022/12/27 01:19:04;;;;;;;6.97;3.47;;;;;;;5.69;58.91;101592.78;672503;29;1246;-85
2022/12/27 01:19:25;;;;;;;6.97;3.60;;;;;;;5.67;58.81;101593.47;675184;29;905;-85
2022/12/27 01:19:46;;;;;;;7.55;3.45;;;;;;;5.61;58.79;101594.00;672620;29;932;-85
2022/12/27 01:20:07;;;;;;;8.63;3.67;;;;;;;5.70;59.48;101599.75;672660;29;1333;-85
2022/12/27 01:20:28;;;;;;;8.50;3.75;;;;;;;5.71;59.22;101601.53;669990;29;1339;-85
2022/12/27 01:20:48;;;;;;;7.68;3.80;;;;;;;5.69;58.81;101603.13;672660;29;1011;-85
2022/12/27 01:21:11;;;;;;;7.33;3.80;;;;;;;5.75;59.32;101607.78;675202;29;1090;-85
2022/12/27 01:21:32;;;;;;;7.45;3.60;;;;;;;5.74;59.30;101608.59;675078;29;1035;-85
2022/12/27 01:21:52;;;;;;;7.50;3.50;;;;;;;5.74;58.86;101599.16;672629;29;1164;-85
2022/12/27 01:22:13;;;;;;;6.93;3.10;;;;;;;5.66;59.18;101592.59;670070;29;1129;-85
2022/12/27 01:22:34;;;;;;;7.50;3.10;;;;;;;5.60;59.39;101595.69;672653;29;1166;-85
2022/12/27 01:22:54;;;;;;;6.30;3.10;;;;;;;5.61;59.00;101594.00;667513;29;1231;-85
2022/12/27 01:23:15;;;;;;;5.18;3.17;;;;;;;5.51;59.58;101584.75;670041;29;1002;-85
2022/12/27 01:23:37;;;;;;;4.90;3.20;;;;;;;5.54;59.58;101599.59;664957;29;1167;-85
2022/12/27 01:23:58;;;;;;;7.10;3.78;;;;;;;5.58;59.46;101599.00;665063;29;793;-85
2022/12/27 01:24:18;;;;;;;8.95;3.90;;;;;;;5.44;59.75;101596.44;669954;29;1280;-85
2022/12/27 01:24:39;;;;;;;11.47;4.17;;;;;;;5.47;59.71;101603.50;669994;29;1086;-85
2022/12/27 01:24:59;;;;;;;9.10;3.60;;;;;;;5.46;59.62;101600.03;670108;29;834;-85
2022/12/27 01:25:20;;;;;;;9.68;3.63;;;;;;;5.44;59.83;101600.72;670029;29;1218;-85
2022/12/27 01:25:41;;;;;;;7.23;3.23;;;;;;;5.43;59.85;101601.53;667510;29;1313;-85
2022/12/27 01:26:04;;;;;;;8.10;3.50;;;;;;;5.51;59.86;101607.19;672551;29;1267;-85
2022/12/27 01:26:24;;;;;;;5.40;3.35;;;;;;;5.53;59.93;101595.22;675286;29;1185;-85
2022/12/27 01:26:45;;;;;;;4.90;3.30;;;;;;;5.68;59.86;101611.72;672408;29;1299;-84
2022/12/27 01:27:15;;;;;;;6.10;3.50;;;;;;;5.69;59.89;101613.50;672702;29;1160;-85
2022/12/27 01:27:35;;;;;;;8.43;3.65;;;;;;;5.72;59.58;101608.50;675150;29;1122;-84
2022/12/27 01:27:56;;;;;;;6.73;3.50;;;;;;;5.75;59.51;101626.84;674774;29;1144;-84
2022/12/27 01:28:17;;;;;;;6.45;3.58;;;;;;;5.78;59.60;101612.28;672560;29;1121;-85
2022/12/27 01:28:44;;;;;;;6.20;3.33;;;;;;;5.70;59.30;101586.78;670084;29;1188;-84
2022/12/27 01:29:05;;;;;;;6.88;3.22;;;;;;;5.72;59.51;101605.91;672623;29;1115;-85
2022/12/27 01:29:26;;;;;;;8.47;3.30;;;;;;;5.75;59.61;101593.16;672715;29;992;-85
2022/12/27 01:29:46;;;;;;;7.07;3.53;;;;;;;5.82;59.23;101617.72;675249;29;874;-85
2022/12/27 01:30:08;;;;;;;7.63;3.60;;;;;;;5.81;59.29;101602.09;670151;29;1137;-85
2022/12/27 01:30:28;;;;;;;7.75;3.40;;;;;;;5.74;59.25;101609.50;672544;29;932;-85
2022/12/27 01:30:49;;;;;;;8.00;3.60;;;;;;;5.75;59.43;101603.53;669901;29;1081;-85
2022/12/27 01:31:15;;;;;;;6.80;3.70;;;;;;;5.71;59.27;101596.34;669921;29;1137;-85
2022/12/27 01:31:35;;;;;;;6.00;3.72;;;;;;;5.83;59.30;101614.34;675068;29;1443;-85
2022/12/27 01:31:56;;;;;;;6.22;3.60;;;;;;;5.75;59.39;101603.53;677745;29;1179;-84
2022/12/27 01:32:16;;;;;;;5.93;3.45;;;;;;;5.79;59.31;101616.66;672572;29;1156;-85
2022/12/27 01:32:37;;;;;;;6.40;3.50;;;;;;;5.73;59.73;101602.53;672572;29;1278;-85
2022/12/27 01:32:57;;;;;;;8.27;3.50;;;;;;;5.73;59.78;101601.63;672784;29;853;-87
2022/12/27 01:33:18;;;;;;;9.27;3.50;;;;;;;5.75;59.39;101607.78;669956;29;1080;-85
2022/12/27 01:33:40;;;;;;;10.98;3.80;;;;;;;5.84;59.40;101607.47;667323;29;1267;-85
2022/12/27 01:34:01;;;;;;;8.20;4.05;;;;;;;5.82;59.49;101612.56;672488;29;1122;-85
2022/12/27 01:34:22;;;;;;;6.77;3.90;;;;;;;5.75;59.29;101603.53;672626;29;1141;-85
2022/12/27 01:34:42;;;;;;;5.50;3.80;;;;;;;5.74;59.04;101600.84;674979;29;1970;-84
2022/12/27 01:35:03;;;;;;;6.68;3.70;;;;;;;5.74;59.36;101599.16;675130;29;1200;-85
2022/12/27 01:35:23;;;;;;;7.40;3.50;;;;;;;5.75;59.16;101590.56;675156;29;984;-84
2022/12/27 01:35:44;;;;;;;8.27;3.20;;;;;;;5.78;59.30;101604.50;669983;29;1248;-85
2022/12/27 01:36:12;;;;;;;6.55;2.92;;;;;;;5.86;59.25;101613.63;669964;29;1388;-85
2022/12/27 01:36:32;;;;;;;6.13;3.25;;;;;;;5.71;59.29;101598.94;672551;29;1088;-85
2022/12/27 01:36:53;;;;;;;5.60;3.13;;;;;;;5.79;59.56;101603.69;675004;29;1133;-85
2022/12/27 01:37:13;;;;;;;6.60;3.20;;;;;;;5.77;59.38;101592.34;672547;29;1083;-85
2022/12/27 01:37:34;;;;;;;6.03;2.97;;;;;;;5.83;59.07;101603.09;670008;29;1107;-84
2022/12/27 01:37:55;;;;;;;6.47;3.03;;;;;;;5.90;59.24;101613.03;672542;29;1209;-85
2022/12/27 01:38:15;;;;;;;7.28;3.13;;;;;;;5.78;59.30;101607.09;670084;29;1091;-85
2022/12/27 01:38:36;;;;;;;10.05;3.47;;;;;;;5.81;59.40;101597.81;672532;29;1081;-85
2022/12/27 01:39:02;;;;;;;9.50;3.60;;;;;;;5.80;59.60;101610.66;669960;29;1216;-85
2022/12/27 01:39:22;;;;;;;6.80;3.53;;;;;;;5.65;59.73;101595.97;672594;29;1099;-84
2022/12/27 01:39:43;;;;;;;5.50;3.20;;;;;;;5.63;59.45;101600.16;675219;29;1015;-86
2022/12/27 01:40:04;;;;;;;6.32;3.40;;;;;;;5.56;59.54;101591.13;672488;29;1120;-85
2022/12/27 01:40:25;;;;;;;6.03;3.22;;;;;;;5.61;59.49;101594.00;675168;29;1019;-85
2022/12/27 01:40:46;;;;;;;6.40;3.40;;;;;;;5.70;59.87;101612.69;677688;29;1223;-85
2022/12/27 01:42:50;;;;;;;6.75;3.40;;;;;;;5.81;59.57;101613.34;677890;29;1109;-85
2022/12/27 01:43:15;;;;;;;7.43;3.17;;;;;;;5.86;59.23;101611.94;667480;29;1172;-85
2022/12/27 01:43:37;;;;;;;6.60;3.20;;;;;;;5.75;59.12;101606.13;672546;29;1207;-85
2022/12/27 01:43:58;;;;;;;5.38;3.30;;;;;;;5.86;59.29;101629.19;672508;29;1380;-84
2022/12/27 01:44:57;;;;;;;5.28;3.50;;;;;;;5.81;59.66;101607.28;672461;29;1324;-85
2022/12/27 01:45:19;;;;;;;7.80;3.50;;;;;;;5.82;59.57;101609.97;667275;29;1207;-85
2022/12/27 01:45:39;;;;;;;8.38;3.70;;;;;;;5.79;59.24;101606.28;664809;29;1538;-85
2022/12/27 01:46:00;;;;;;;8.88;3.70;;;;;;;5.78;59.51;101618.38;664864;29;1196;-85
2022/12/27 01:46:21;;;;;;;7.20;3.60;;;;;;;5.70;59.53;101629.94;677656;29;1201;-85